createdAt,value
2022-09-07T00:02:11.995Z,13.70
2022-09-07T00:04:38.913Z,13.80
2022-09-07T00:07:05.705Z,13.80
2022-09-07T00:09:32.634Z,13.80
2022-09-07T00:11:59.466Z,13.80
2022-09-07T00:14:26.344Z,13.80
2022-09-07T00:16:53.194Z,13.80
2022-09-07T00:19:20.043Z,13.80
2022-09-07T00:21:46.953Z,13.80
2022-09-07T00:24:14.730Z,13.80
2022-09-07T00:26:41.660Z,13.90
2022-09-07T00:29:08.559Z,13.90
2022-09-07T00:31:35.669Z,13.80
2022-09-07T00:34:03.007Z,13.80
2022-09-07T00:36:30.378Z,13.90
2022-09-07T00:38:57.726Z,13.90
2022-09-07T00:41:24.655Z,13.90
2022-09-07T00:43:56.046Z,13.80
2022-09-07T00:46:25.847Z,13.70
2022-09-07T00:49:13.041Z,13.60
2022-09-07T00:51:50.246Z,13.50
2022-09-07T00:54:31.809Z,13.50
2022-09-07T00:56:59.057Z,13.50
2022-09-07T00:59:30.327Z,13.40
2022-09-07T01:01:57.376Z,13.40
2022-09-07T01:04:25.015Z,13.40
2022-09-07T01:06:54.026Z,13.30
2022-09-07T01:09:23.649Z,13.30
2022-09-07T01:11:52.476Z,13.30
2022-09-07T01:14:25.215Z,13.30
2022-09-07T01:17:07.354Z,13.20
2022-09-07T01:19:53.009Z,13.20
2022-09-07T01:22:32.285Z,13.20
2022-09-07T01:25:14.477Z,13.20
2022-09-07T01:28:11.998Z,13.20
2022-09-07T01:30:42.288Z,13.20
2022-09-07T01:33:19.292Z,13.20
2022-09-07T01:36:17.686Z,13.20
2022-09-07T01:38:52.550Z,13.20
2022-09-07T01:41:45.602Z,13.20
2022-09-07T01:44:27.167Z,13.30
2022-09-07T01:47:05.313Z,13.30
2022-09-07T01:49:47.723Z,13.30
2022-09-07T01:52:27.592Z,13.30
2022-09-07T01:55:15.616Z,13.30
2022-09-07T01:57:50.328Z,13.40
2022-09-07T02:00:19.279Z,13.40
2022-09-07T02:03:05.009Z,13.40
2022-09-07T02:05:41.843Z,13.50
2022-09-07T02:08:27.536Z,13.40
2022-09-07T02:11:02.488Z,13.40
2022-09-07T02:13:41.222Z,13.30
2022-09-07T02:16:15.789Z,13.30
2022-09-07T02:18:50.169Z,13.30
2022-09-07T02:21:20.655Z,13.20
2022-09-07T02:23:51.762Z,13.20
2022-09-07T02:26:23.807Z,13.20
2022-09-07T02:28:51.010Z,13.20
2022-09-07T02:31:17.947Z,13.20
2022-09-07T02:33:44.930Z,13.20
2022-09-07T02:36:12.716Z,13.20
2022-09-07T02:38:39.831Z,13.20
2022-09-07T02:41:26.579Z,13.20
2022-09-07T02:43:53.563Z,13.10
2022-09-07T02:46:33.106Z,13.10
2022-09-07T02:49:35.952Z,13.10
2022-09-07T02:52:17.996Z,13.10
2022-09-07T02:55:22.839Z,13.10
2022-09-07T02:57:58.628Z,13.10
2022-09-07T03:00:28.305Z,13.00
2022-09-07T03:03:03.558Z,13.00
2022-09-07T03:05:42.412Z,13.00
2022-09-07T03:08:20.089Z,13.10
2022-09-07T03:10:47.766Z,13.10
2022-09-07T03:13:34.969Z,13.20
2022-09-07T03:16:02.094Z,13.30
2022-09-07T03:18:29.260Z,13.30
2022-09-07T03:20:56.367Z,13.40
2022-09-07T03:23:23.530Z,13.40
2022-09-07T03:25:50.663Z,13.30
2022-09-07T03:28:17.589Z,13.30
2022-09-07T03:30:46.229Z,13.20
2022-09-07T03:33:15.837Z,13.20
2022-09-07T03:35:56.379Z,13.20
2022-09-07T03:38:23.197Z,13.20
2022-09-07T03:41:04.924Z,13.20
2022-09-07T03:43:32.161Z,13.20
2022-09-07T03:46:04.797Z,13.20
2022-09-07T03:48:34.672Z,13.20
2022-09-07T03:51:07.218Z,13.20
2022-09-07T03:53:35.620Z,13.20
2022-09-07T03:56:05.751Z,13.20
2022-09-07T03:58:33.894Z,13.20
2022-09-07T04:01:05.303Z,13.30
2022-09-07T04:03:32.306Z,13.30
2022-09-07T04:06:00.150Z,13.30
2022-09-07T04:08:28.728Z,13.30
2022-09-07T04:10:57.471Z,13.30
2022-09-07T04:13:25.969Z,13.30
2022-09-07T04:15:53.979Z,13.30
2022-09-07T04:18:21.509Z,13.30
2022-09-07T04:20:52.730Z,13.30
2022-09-07T04:23:19.690Z,13.30
2022-09-07T04:25:51.201Z,13.20
2022-09-07T04:28:20.120Z,13.20
2022-09-07T04:30:47.390Z,13.20
2022-09-07T04:33:14.700Z,13.10
2022-09-07T04:35:42.548Z,13.10
2022-09-07T04:38:13.599Z,13.10
2022-09-07T04:40:40.457Z,13.10
2022-09-07T04:43:08.354Z,13.10
2022-09-07T04:45:38.545Z,13.10
2022-09-07T04:48:05.782Z,13.20
2022-09-07T04:50:32.985Z,13.30
2022-09-07T04:52:59.830Z,13.40
2022-09-07T04:55:26.713Z,13.50
2022-09-07T04:57:53.550Z,13.70
2022-09-07T05:00:20.555Z,13.70
2022-09-07T05:02:47.739Z,13.80
2022-09-07T05:05:14.910Z,13.80
2022-09-07T05:07:41.810Z,13.80
2022-09-07T05:10:08.921Z,13.80
2022-09-07T05:12:35.871Z,13.90
2022-09-07T05:15:02.941Z,13.90
2022-09-07T05:17:31.124Z,13.90
2022-09-07T05:19:58.325Z,14.00
2022-09-07T05:22:25.272Z,14.00
2022-09-07T05:24:52.151Z,14.10
2022-09-07T05:27:19.148Z,14.10
2022-09-07T05:30:03.736Z,14.10
2022-09-07T05:32:31.931Z,14.10
2022-09-07T05:34:58.836Z,14.10
2022-09-07T05:37:25.654Z,14.20
2022-09-07T05:39:55.066Z,14.20
2022-09-07T05:42:22.744Z,14.20
2022-09-07T05:44:49.669Z,14.30
2022-09-07T05:47:16.556Z,14.30
2022-09-07T05:49:43.395Z,14.30
2022-09-07T05:52:10.366Z,14.40
2022-09-07T05:54:37.431Z,14.40
2022-09-07T05:57:04.816Z,14.40
2022-09-07T05:59:31.656Z,14.50
2022-09-07T06:01:58.644Z,14.50
2022-09-07T06:04:25.668Z,14.50
2022-09-07T06:07:20.103Z,14.60
2022-09-07T06:12:27.848Z,14.70
2022-09-07T06:14:54.819Z,14.80
2022-09-07T06:17:21.723Z,14.80
2022-09-07T06:19:48.809Z,14.90
2022-09-07T06:22:15.651Z,14.90
2022-09-07T06:24:42.550Z,15.00
2022-09-07T06:27:09.471Z,15.00
2022-09-07T06:29:36.375Z,15.00
2022-09-07T06:34:50.385Z,15.10
2022-09-07T06:37:17.227Z,15.20
2022-09-07T06:39:44.147Z,15.20
2022-09-07T06:42:11.074Z,15.30
2022-09-07T06:44:38.022Z,15.40
2022-09-07T06:47:05.308Z,15.40
2022-09-07T06:49:32.198Z,15.50
2022-09-07T06:51:59.063Z,15.50
2022-09-07T06:57:12.816Z,15.70
2022-09-07T06:59:39.771Z,15.70
2022-09-07T07:02:07.244Z,15.80
2022-09-07T07:04:39.540Z,15.80
2022-09-07T07:07:10.721Z,15.90
2022-09-07T07:09:38.242Z,15.90
2022-09-07T07:12:05.241Z,16.00
2022-09-07T07:14:34.603Z,16.00
2022-09-07T07:17:02.536Z,16.00
2022-09-07T07:19:29.527Z,16.00
2022-09-07T07:24:43.206Z,16.10
2022-09-07T07:27:10.120Z,16.10
2022-09-07T07:29:36.993Z,16.20
2022-09-07T07:32:04.369Z,16.20
2022-09-07T07:34:31.296Z,16.20
2022-09-07T07:36:58.174Z,16.20
2022-09-07T07:42:12.530Z,16.30
2022-09-07T07:44:39.488Z,16.30
2022-09-07T07:47:06.436Z,16.30
2022-09-07T07:49:33.246Z,16.40
2022-09-07T07:54:47.083Z,16.50
2022-09-07T07:57:14.123Z,16.60
2022-09-07T07:59:41.101Z,16.60
2022-09-07T08:02:13.701Z,16.70
2022-09-07T08:04:40.675Z,16.70
2022-09-07T08:07:10.949Z,16.70
2022-09-07T08:09:39.786Z,16.80
2022-09-07T08:12:07.071Z,16.80
2022-09-07T08:14:36.592Z,16.90
2022-09-07T08:17:03.411Z,16.90
2022-09-07T08:19:30.275Z,17.10
2022-09-07T08:21:57.127Z,17.10
2022-09-07T08:24:24.137Z,17.20
2022-09-07T08:26:51.354Z,17.40
2022-09-07T08:29:18.272Z,17.50
2022-09-07T08:31:45.181Z,17.60
2022-09-07T08:34:41.205Z,17.70
2022-09-07T08:37:08.174Z,17.80
2022-09-07T08:39:36.012Z,17.80
2022-09-07T08:42:15.555Z,17.80
2022-09-07T08:44:48.853Z,17.80
2022-09-07T08:47:50.446Z,17.70
2022-09-07T08:50:33.617Z,17.60
2022-09-07T08:53:12.731Z,17.60
2022-09-07T08:55:47.346Z,17.50
2022-09-07T08:58:48.216Z,17.50
2022-09-07T09:01:31.540Z,17.40
2022-09-07T09:07:20.888Z,17.30
2022-09-07T09:09:50.296Z,17.20
2022-09-07T09:12:37.567Z,17.20
2022-09-07T09:15:33.146Z,17.20
2022-09-07T09:18:14.597Z,17.20
2022-09-07T09:20:49.218Z,17.20
2022-09-07T09:23:17.841Z,17.30
2022-09-07T09:25:57.248Z,17.40
2022-09-07T09:28:28.977Z,17.40
2022-09-07T09:30:58.590Z,17.40
2022-09-07T09:33:27.539Z,17.40
2022-09-07T09:36:00.498Z,17.50
2022-09-07T09:38:40.199Z,17.50
2022-09-07T09:41:12.050Z,17.50
2022-09-07T09:43:52.807Z,17.50
2022-09-07T09:49:46.480Z,17.50
2022-09-07T09:52:42.962Z,17.40
2022-09-07T09:55:30.600Z,17.40
2022-09-07T10:01:24.013Z,17.30
2022-09-07T10:06:24.348Z,17.10
2022-09-07T10:08:59.301Z,17.10
2022-09-07T10:14:43.338Z,17.00
2022-09-07T10:17:26.676Z,16.80
2022-09-07T10:19:58.298Z,16.80
2022-09-07T10:22:38.355Z,16.70
2022-09-07T10:25:29.504Z,16.60
2022-09-07T10:28:04.292Z,16.50
2022-09-07T10:31:08.012Z,16.40
2022-09-07T10:37:04.682Z,16.20
2022-09-07T10:39:37.428Z,16.20
2022-09-07T10:42:25.825Z,16.20
2022-09-07T10:45:39.034Z,16.30
2022-09-07T10:48:25.493Z,16.30
2022-09-07T10:51:13.788Z,16.30
2022-09-07T10:56:58.003Z,16.30
2022-09-07T11:06:27.561Z,16.30
2022-09-07T11:09:17.820Z,16.20
2022-09-07T11:12:12.033Z,16.30
2022-09-07T11:14:50.308Z,16.30
2022-09-07T11:17:22.958Z,16.40
2022-09-07T11:20:13.807Z,16.30
2022-09-07T11:22:47.503Z,16.20
2022-09-07T11:25:31.873Z,16.20
2022-09-07T11:28:13.103Z,16.20
2022-09-07T11:30:47.879Z,16.20
2022-09-07T11:33:29.419Z,16.20
2022-09-07T11:36:31.467Z,16.20
2022-09-07T11:39:07.713Z,16.20
2022-09-07T11:41:39.657Z,16.20
2022-09-07T11:44:25.866Z,16.30
2022-09-07T11:46:56.314Z,16.50
2022-09-07T11:49:25.965Z,16.70
2022-09-07T11:51:55.446Z,17.00
2022-09-07T11:54:43.602Z,17.10
2022-09-07T11:57:22.972Z,17.30
2022-09-07T12:00:23.567Z,17.40
2022-09-07T12:03:05.484Z,17.70
2022-09-07T12:05:37.926Z,17.90
2022-09-07T12:08:18.318Z,18.00
2022-09-07T12:11:23.180Z,18.20
2022-09-07T12:14:08.941Z,18.50
2022-09-07T12:17:08.127Z,18.40
2022-09-07T12:19:35.025Z,18.40
2022-09-07T12:22:01.979Z,18.50
2022-09-07T12:24:42.543Z,18.50
2022-09-07T12:27:31.967Z,18.60
2022-09-07T12:29:59.554Z,18.60
2022-09-07T12:32:54.541Z,18.70
2022-09-07T12:35:37.176Z,18.80
2022-09-07T12:38:30.307Z,18.90
2022-09-07T12:41:01.073Z,19.00
2022-09-07T12:43:27.790Z,19.00
2022-09-07T12:45:56.709Z,19.10
2022-09-07T12:48:32.487Z,19.30
2022-09-07T12:51:10.994Z,19.30
2022-09-07T12:53:57.851Z,19.30
2022-09-07T12:56:36.759Z,19.40
2022-09-07T12:59:22.333Z,19.60
2022-09-07T13:02:26.940Z,19.60
2022-09-07T13:05:15.557Z,19.80
2022-09-07T13:08:09.297Z,19.90
2022-09-07T13:10:39.453Z,20.10
2022-09-07T13:13:16.126Z,20.20
2022-09-07T13:15:43.047Z,20.20
2022-09-07T13:18:13.941Z,20.20
2022-09-07T13:20:41.714Z,20.30
2022-09-07T13:23:16.642Z,20.40
2022-09-07T13:25:47.003Z,20.40
2022-09-07T13:28:33.235Z,20.40
2022-09-07T13:31:21.882Z,20.40
2022-09-07T13:33:50.590Z,20.50
2022-09-07T13:36:36.941Z,20.60
2022-09-07T13:39:07.674Z,20.70
2022-09-07T13:41:42.428Z,20.80
2022-09-07T13:44:29.731Z,20.90
2022-09-07T13:46:59.663Z,20.90
2022-09-07T13:49:45.265Z,21.00
2022-09-07T13:52:19.002Z,21.00
2022-09-07T13:55:05.053Z,21.10
2022-09-07T13:58:08.687Z,21.20
2022-09-07T14:00:35.673Z,21.20
2022-09-07T14:03:07.416Z,21.20
2022-09-07T14:05:34.232Z,21.20
2022-09-07T14:08:01.016Z,21.30
2022-09-07T14:10:29.167Z,21.30
2022-09-07T14:13:07.130Z,21.10
2022-09-07T14:15:42.158Z,21.10
2022-09-07T14:18:14.524Z,21.20
2022-09-07T14:20:52.936Z,21.30
2022-09-07T14:23:31.467Z,21.30
2022-09-07T14:26:23.090Z,21.40
2022-09-07T14:28:55.835Z,21.50
2022-09-07T14:31:27.077Z,21.50
2022-09-07T14:33:56.995Z,21.50
2022-09-07T14:36:46.085Z,21.50
2022-09-07T14:39:15.456Z,21.40
2022-09-07T14:41:43.419Z,21.40
2022-09-07T14:44:38.721Z,21.50
2022-09-07T14:47:29.294Z,21.50
2022-09-07T14:49:59.767Z,21.50
2022-09-07T14:52:31.466Z,21.40
2022-09-07T14:54:58.529Z,21.50
2022-09-07T14:57:31.678Z,21.40
2022-09-07T15:00:29.373Z,21.30
2022-09-07T15:02:56.469Z,21.20
2022-09-07T15:05:28.347Z,21.20
2022-09-07T15:07:58.312Z,21.20
2022-09-07T15:10:38.305Z,21.20
2022-09-07T15:13:20.526Z,21.20
2022-09-07T15:15:57.185Z,21.30
2022-09-07T15:18:45.546Z,21.30
2022-09-07T15:21:12.382Z,21.20
2022-09-07T15:23:39.848Z,21.20
2022-09-07T15:26:08.997Z,21.20
2022-09-07T15:31:54.302Z,21.00
2022-09-07T15:34:18.208Z,21.00
2022-09-07T15:36:53.597Z,20.90
2022-09-07T15:39:26.640Z,20.90
2022-09-07T15:41:53.750Z,20.80
2022-09-07T15:44:25.287Z,20.70
2022-09-07T15:49:47.412Z,20.70
2022-09-07T15:52:17.204Z,20.70
2022-09-07T15:54:44.451Z,20.60
2022-09-07T15:59:58.713Z,20.50
2022-09-07T16:10:53.944Z,20.40
2022-09-07T16:13:23.814Z,20.30
2022-09-07T16:15:50.628Z,20.20
2022-09-07T16:18:20.409Z,20.20
2022-09-07T16:21:28.410Z,20.10
2022-09-07T16:23:55.594Z,20.00
2022-09-07T16:26:24.584Z,20.00
2022-09-07T16:28:52.922Z,20.00
2022-09-07T16:31:26.392Z,19.90
2022-09-07T16:34:13.299Z,19.80
2022-09-07T16:36:41.286Z,19.70
2022-09-07T16:39:08.782Z,19.60
2022-09-07T16:41:35.753Z,19.50
2022-09-07T16:44:02.858Z,19.50
2022-09-07T16:46:42.966Z,19.40
2022-09-07T16:49:11.022Z,19.40
2022-09-07T16:51:39.672Z,19.30
2022-09-07T16:54:07.045Z,19.20
2022-09-07T16:56:38.768Z,19.20
2022-09-07T16:59:07.061Z,19.10
2022-09-07T17:01:35.623Z,19.00
2022-09-07T17:04:07.997Z,19.00
2022-09-07T17:06:37.851Z,18.90
2022-09-07T17:09:05.434Z,18.90
2022-09-07T17:11:34.617Z,18.90
2022-09-07T17:14:01.767Z,18.90
2022-09-07T17:16:34.197Z,18.80
2022-09-07T17:21:51.762Z,18.70
2022-09-07T17:24:19.688Z,18.70
2022-09-07T17:26:46.725Z,18.60
2022-09-07T17:29:14.628Z,18.50
2022-09-07T17:34:32.226Z,18.40
2022-09-07T17:37:00.513Z,18.30
2022-09-07T17:39:28.159Z,18.20
2022-09-07T17:41:55.078Z,18.20
2022-09-07T17:44:23.257Z,18.10
2022-09-07T17:46:50.673Z,18.00
2022-09-07T17:49:17.851Z,17.90
2022-09-07T17:51:45.696Z,17.90
2022-09-07T17:54:14.962Z,17.80
2022-09-07T17:56:42.332Z,17.70
2022-09-07T18:01:56.654Z,17.60
2022-09-07T18:04:23.509Z,17.50
2022-09-07T18:06:51.023Z,17.40
2022-09-07T18:09:19.573Z,17.30
2022-09-07T18:11:48.023Z,17.30
2022-09-07T18:14:16.674Z,17.20
2022-09-07T18:16:44.955Z,17.20
2022-09-07T18:19:12.133Z,17.10
2022-09-07T18:21:43.290Z,17.10
2022-09-07T18:24:19.483Z,17.00
2022-09-07T18:26:51.963Z,17.00
2022-09-07T18:29:31.371Z,17.00
2022-09-07T18:32:01.475Z,16.90
2022-09-07T18:34:34.536Z,16.90
2022-09-07T18:37:01.589Z,16.80
2022-09-07T18:39:29.086Z,16.80
2022-09-07T18:41:56.219Z,16.80
2022-09-07T18:47:21.118Z,16.80
2022-09-07T18:49:50.225Z,16.70
2022-09-07T18:55:06.999Z,16.70
2022-09-07T18:57:34.260Z,16.70
2022-09-07T19:00:01.113Z,16.70
2022-09-07T19:02:27.986Z,16.60
2022-09-07T19:07:41.597Z,16.60
2022-09-07T19:10:08.777Z,16.60
2022-09-07T19:12:36.235Z,16.60
2022-09-07T19:15:03.901Z,16.60
2022-09-07T19:17:31.624Z,16.60
2022-09-07T19:19:58.449Z,16.60
2022-09-07T19:22:27.234Z,16.60
2022-09-07T19:24:54.361Z,16.50
2022-09-07T19:27:21.245Z,16.50
2022-09-07T19:29:49.581Z,16.50
2022-09-07T19:32:17.111Z,16.50
2022-09-07T19:34:45.505Z,16.50
2022-09-07T19:37:13.391Z,16.50
2022-09-07T19:39:40.190Z,16.50
2022-09-07T19:42:07.154Z,16.50
2022-09-07T19:44:34.039Z,16.50
2022-09-07T19:47:01.188Z,16.50
2022-09-07T19:49:28.611Z,16.50
2022-09-07T19:51:55.791Z,16.50
2022-09-07T19:54:22.656Z,16.60
2022-09-07T19:57:16.080Z,16.50
2022-09-07T20:00:31.348Z,16.50
2022-09-07T20:03:02.356Z,16.50
2022-09-07T20:05:32.069Z,16.50
2022-09-07T20:07:58.944Z,16.50
2022-09-07T20:10:32.336Z,16.50
2022-09-07T20:12:59.241Z,16.50
2022-09-07T20:15:27.297Z,16.40
2022-09-07T20:17:55.226Z,16.40
2022-09-07T20:20:23.307Z,16.40
2022-09-07T20:22:50.811Z,16.40
2022-09-07T20:25:17.777Z,16.40
2022-09-07T20:27:44.632Z,16.40
2022-09-07T20:30:11.885Z,16.30
2022-09-07T20:32:38.983Z,16.30
2022-09-07T20:35:06.546Z,16.30
2022-09-07T20:37:34.288Z,16.20
2022-09-07T20:40:01.254Z,16.20
2022-09-07T20:42:28.148Z,16.10
2022-09-07T20:44:55.171Z,16.10
2022-09-07T20:47:22.113Z,16.00
2022-09-07T20:49:48.900Z,15.90
2022-09-07T20:52:16.004Z,15.90
2022-09-07T20:54:43.213Z,15.80
2022-09-07T20:57:10.340Z,15.80
2022-09-07T20:59:37.117Z,15.80
2022-09-07T21:02:04.085Z,15.80
2022-09-07T21:04:30.936Z,15.70
2022-09-07T21:06:57.712Z,15.70
2022-09-07T21:09:24.487Z,15.70
2022-09-07T21:11:55.100Z,15.70
2022-09-07T21:14:23.752Z,15.60
2022-09-07T21:16:50.514Z,15.60
2022-09-07T21:19:17.384Z,15.60
2022-09-07T21:21:44.092Z,15.60
2022-09-07T21:24:20.146Z,15.60
2022-09-07T21:26:47.346Z,15.60
2022-09-07T21:29:24.614Z,15.60
2022-09-07T21:31:54.981Z,15.60
2022-09-07T21:34:22.437Z,15.60
2022-09-07T21:36:51.155Z,15.70
2022-09-07T21:39:18.324Z,15.60
2022-09-07T21:41:45.257Z,15.60
2022-09-07T21:44:13.975Z,15.50
2022-09-07T21:46:41.767Z,15.50
2022-09-07T21:49:08.669Z,15.50
2022-09-07T21:51:35.619Z,15.50
2022-09-07T21:54:02.369Z,15.50
2022-09-07T21:56:29.979Z,15.50
2022-09-07T21:58:58.859Z,15.40
2022-09-07T22:01:26.889Z,15.40
2022-09-07T22:03:58.854Z,15.40
2022-09-07T22:06:30.056Z,15.40
2022-09-07T22:08:56.855Z,15.40
2022-09-07T22:11:25.227Z,15.30
2022-09-07T22:14:01.533Z,15.30
2022-09-07T22:16:29.077Z,15.30
2022-09-07T22:18:56.036Z,15.20
2022-09-07T22:21:25.411Z,15.20
2022-09-07T22:23:55.783Z,15.20
2022-09-07T22:26:24.062Z,15.10
2022-09-07T22:28:51.279Z,15.10
2022-09-07T22:31:29.703Z,15.00
2022-09-07T22:33:57.444Z,15.00
2022-09-07T22:36:29.886Z,15.00
2022-09-07T22:38:58.187Z,14.90
2022-09-07T22:41:27.810Z,14.90
2022-09-07T22:43:54.838Z,14.90
2022-09-07T22:46:23.159Z,14.90
2022-09-07T22:48:50.193Z,14.80
2022-09-07T22:51:16.970Z,14.80
2022-09-07T22:53:44.243Z,14.80
2022-09-07T22:56:16.558Z,14.70
2022-09-07T22:58:48.573Z,14.70
2022-09-07T23:01:15.903Z,14.70
2022-09-07T23:03:43.626Z,14.60
2022-09-07T23:06:31.251Z,14.60
2022-09-07T23:08:59.560Z,14.60
2022-09-07T23:11:26.690Z,14.60
2022-09-07T23:13:55.798Z,14.60
2022-09-07T23:16:22.967Z,14.60
2022-09-07T23:18:49.845Z,14.50
2022-09-07T23:21:16.954Z,14.50
2022-09-07T23:23:43.934Z,14.50
2022-09-07T23:26:10.769Z,14.50
2022-09-07T23:28:37.513Z,14.50
2022-09-07T23:31:04.306Z,14.50
2022-09-07T23:33:31.236Z,14.50
2022-09-07T23:36:03.864Z,14.40
2022-09-07T23:38:31.140Z,14.40
2022-09-07T23:40:59.521Z,14.40
2022-09-07T23:43:27.743Z,14.40
2022-09-07T23:45:55.239Z,14.40
2022-09-07T23:48:23.048Z,14.30
2022-09-07T23:50:50.219Z,14.30
2022-09-07T23:53:17.894Z,14.30
2022-09-07T23:55:45.904Z,14.20
2022-09-07T23:58:12.769Z,14.20
